< < Back
Terminal Aerodrome Forecast


Current Version              Previous Versions:   1  2  3  4  5  6  7  8  9  

Terminal Aerodrome Forecast

401
FTUS44 KMRX 311226 AAA
TAFTYS
TAF AMD
KTYS 311226Z 3112/0112 32004KT P6SM BKN060
     FM311800 27007KT P6SM VCSH OVC050
     FM312100 28010KT 6SM -RA BR OVC025
     FM010000 30015G25KT 5SM -SNRA BR OVC015
     FM010900 31016KT 2SM -SN BR OVC015=

Latest METAR

077
SAUS80 KWBC 311900 RRA
MTRTYS
METAR KTYS 311853Z 00000KT 10SM OVC041 11/06 A2990 RMK AO2 SLP124
T01060056


USA.gov is the U.S. government's official web portal to all federal, state and local government web resources and services.